sensor_id;sensor_type;location;lat;lon;timestamp;P1;durP1;ratioP1;P2;durP2;ratioP2
1603;SDS011;795;49.296;11.348;2022-07-22T00:01:17;9.37;;;8.67;;
1603;SDS011;795;49.296;11.348;2022-07-22T00:03:45;10.03;;;9.00;;
1603;SDS011;795;49.296;11.348;2022-07-22T00:06:12;11.10;;;9.93;;
1603;SDS011;795;49.296;11.348;2022-07-22T00:08:40;9.00;;;8.20;;
1603;SDS011;795;49.296;11.348;2022-07-22T00:11:07;10.00;;;9.20;;
1603;SDS011;795;49.296;11.348;2022-07-22T00:13:34;12.30;;;9.03;;
1603;SDS011;795;49.296;11.348;2022-07-22T00:16:01;11.17;;;9.13;;
1603;SDS011;795;49.296;11.348;2022-07-22T00:18:28;11.17;;;10.07;;
1603;SDS011;795;49.296;11.348;2022-07-22T00:20:55;10.67;;;9.67;;
1603;SDS011;795;49.296;11.348;2022-07-22T00:23:22;10.53;;;9.60;;
1603;SDS011;795;49.296;11.348;2022-07-22T00:25:51;11.43;;;10.43;;
1603;SDS011;795;49.296;11.348;2022-07-22T00:28:19;11.53;;;10.40;;
1603;SDS011;795;49.296;11.348;2022-07-22T00:30:46;10.30;;;9.40;;
1603;SDS011;795;49.296;11.348;2022-07-22T00:33:19;10.80;;;9.70;;
1603;SDS011;795;49.296;11.348;2022-07-22T00:35:46;10.30;;;9.30;;
1603;SDS011;795;49.296;11.348;2022-07-22T00:38:13;10.47;;;9.47;;
1603;SDS011;795;49.296;11.348;2022-07-22T00:40:40;10.57;;;9.67;;
1603;SDS011;795;49.296;11.348;2022-07-22T00:43:07;10.20;;;9.40;;
1603;SDS011;795;49.296;11.348;2022-07-22T00:45:34;12.93;;;9.30;;
1603;SDS011;795;49.296;11.348;2022-07-22T00:48:02;10.83;;;9.93;;
1603;SDS011;795;49.296;11.348;2022-07-22T00:50:31;10.00;;;9.10;;
1603;SDS011;795;49.296;11.348;2022-07-22T00:52:58;11.97;;;10.77;;
1603;SDS011;795;49.296;11.348;2022-07-22T00:55:25;10.20;;;9.30;;
1603;SDS011;795;49.296;11.348;2022-07-22T00:57:52;11.37;;;10.10;;
1603;SDS011;795;49.296;11.348;2022-07-22T01:00:20;9.83;;;9.13;;
1603;SDS011;795;49.296;11.348;2022-07-22T01:02:48;13.73;;;10.60;;
1603;SDS011;795;49.296;11.348;2022-07-22T01:05:15;11.70;;;10.60;;
1603;SDS011;795;49.296;11.348;2022-07-22T01:07:44;11.03;;;9.97;;
1603;SDS011;795;49.296;11.348;2022-07-22T01:10:10;9.60;;;8.70;;
1603;SDS011;795;49.296;11.348;2022-07-22T01:12:40;11.67;;;10.60;;
1603;SDS011;795;49.296;11.348;2022-07-22T01:15:07;10.60;;;9.70;;
1603;SDS011;795;49.296;11.348;2022-07-22T01:17:35;9.70;;;9.00;;
1603;SDS011;795;49.296;11.348;2022-07-22T01:20:03;9.70;;;8.83;;
1603;SDS011;795;49.296;11.348;2022-07-22T01:22:32;11.03;;;9.93;;
1603;SDS011;795;49.296;11.348;2022-07-22T01:25:00;11.30;;;10.40;;
1603;SDS011;795;49.296;11.348;2022-07-22T01:27:27;11.50;;;10.40;;
1603;SDS011;795;49.296;11.348;2022-07-22T01:29:56;12.90;;;11.77;;
1603;SDS011;795;49.296;11.348;2022-07-22T01:32:23;10.90;;;10.00;;
1603;SDS011;795;49.296;11.348;2022-07-22T01:34:50;12.60;;;10.63;;
1603;SDS011;795;49.296;11.348;2022-07-22T01:37:17;11.47;;;10.47;;
1603;SDS011;795;49.296;11.348;2022-07-22T01:39:45;12.80;;;11.70;;
1603;SDS011;795;49.296;11.348;2022-07-22T01:42:12;12.03;;;11.03;;
1603;SDS011;795;49.296;11.348;2022-07-22T01:44:39;12.03;;;11.07;;
1603;SDS011;795;49.296;11.348;2022-07-22T01:47:06;11.70;;;10.70;;
1603;SDS011;795;49.296;11.348;2022-07-22T01:49:35;11.57;;;10.60;;
1603;SDS011;795;49.296;11.348;2022-07-22T01:52:03;10.37;;;9.47;;
1603;SDS011;795;49.296;11.348;2022-07-22T01:54:32;11.50;;;10.43;;
1603;SDS011;795;49.296;11.348;2022-07-22T01:56:59;11.03;;;10.13;;
1603;SDS011;795;49.296;11.348;2022-07-22T01:59:27;11.97;;;10.87;;
1603;SDS011;795;49.296;11.348;2022-07-22T02:01:54;11.40;;;10.50;;
1603;SDS011;795;49.296;11.348;2022-07-22T02:04:21;10.27;;;9.30;;
1603;SDS011;795;49.296;11.348;2022-07-22T02:06:52;11.80;;;10.70;;
1603;SDS011;795;49.296;11.348;2022-07-22T02:09:19;11.70;;;10.50;;
1603;SDS011;795;49.296;11.348;2022-07-22T02:11:46;12.70;;;10.77;;
1603;SDS011;795;49.296;11.348;2022-07-22T02:14:13;12.10;;;11.10;;
1603;SDS011;795;49.296;11.348;2022-07-22T02:16:40;13.37;;;12.17;;
1603;SDS011;795;49.296;11.348;2022-07-22T02:19:08;12.57;;;11.37;;
1603;SDS011;795;49.296;11.348;2022-07-22T02:21:35;12.43;;;11.17;;
1603;SDS011;795;49.296;11.348;2022-07-22T02:24:03;11.90;;;10.90;;
1603;SDS011;795;49.296;11.348;2022-07-22T02:26:31;13.03;;;11.83;;
1603;SDS011;795;49.296;11.348;2022-07-22T02:28:58;13.47;;;12.30;;
1603;SDS011;795;49.296;11.348;2022-07-22T02:31:26;13.07;;;11.87;;
1603;SDS011;795;49.296;11.348;2022-07-22T02:33:53;11.63;;;10.63;;
1603;SDS011;795;49.296;11.348;2022-07-22T02:36:22;11.90;;;10.83;;
1603;SDS011;795;49.296;11.348;2022-07-22T02:38:50;11.80;;;10.90;;
1603;SDS011;795;49.296;11.348;2022-07-22T02:41:17;12.30;;;11.30;;
1603;SDS011;795;49.296;11.348;2022-07-22T02:43:44;11.93;;;10.90;;
1603;SDS011;795;49.296;11.348;2022-07-22T02:46:11;12.83;;;11.80;;
1603;SDS011;795;49.296;11.348;2022-07-22T02:48:38;12.90;;;11.80;;
1603;SDS011;795;49.296;11.348;2022-07-22T02:51:06;13.00;;;11.90;;
1603;SDS011;795;49.296;11.348;2022-07-22T02:53:32;13.50;;;12.30;;
1603;SDS011;795;49.296;11.348;2022-07-22T02:56:00;12.77;;;11.70;;
1603;SDS011;795;49.296;11.348;2022-07-22T02:58:26;11.77;;;10.77;;
1603;SDS011;795;49.296;11.348;2022-07-22T03:00:53;11.80;;;10.80;;
1603;SDS011;795;49.296;11.348;2022-07-22T03:03:21;13.03;;;11.27;;
1603;SDS011;795;49.296;11.348;2022-07-22T03:05:48;11.10;;;10.10;;
1603;SDS011;795;49.296;11.348;2022-07-22T03:08:15;11.50;;;10.53;;
1603;SDS011;795;49.296;11.348;2022-07-22T03:10:42;12.00;;;11.00;;
1603;SDS011;795;49.296;11.348;2022-07-22T03:13:09;12.60;;;11.50;;
1603;SDS011;795;49.296;11.348;2022-07-22T03:15:37;12.10;;;10.90;;
1603;SDS011;795;49.296;11.348;2022-07-22T03:18:04;12.57;;;11.47;;
1603;SDS011;795;49.296;11.348;2022-07-22T03:20:31;12.80;;;10.93;;
1603;SDS011;795;49.296;11.348;2022-07-22T03:22:59;10.77;;;9.90;;
1603;SDS011;795;49.296;11.348;2022-07-22T03:25:26;14.07;;;12.73;;
1603;SDS011;795;49.296;11.348;2022-07-22T03:27:54;13.10;;;11.93;;
1603;SDS011;795;49.296;11.348;2022-07-22T03:30:21;15.53;;;11.70;;
1603;SDS011;795;49.296;11.348;2022-07-22T03:32:52;12.47;;;11.20;;
1603;SDS011;795;49.296;11.348;2022-07-22T03:35:19;13.23;;;11.97;;
1603;SDS011;795;49.296;11.348;2022-07-22T03:37:46;12.73;;;11.53;;
1603;SDS011;795;49.296;11.348;2022-07-22T03:40:13;12.33;;;11.33;;
1603;SDS011;795;49.296;11.348;2022-07-22T03:42:40;12.17;;;11.07;;
1603;SDS011;795;49.296;11.348;2022-07-22T03:45:11;12.63;;;11.60;;
1603;SDS011;795;49.296;11.348;2022-07-22T03:47:39;14.97;;;12.90;;
1603;SDS011;795;49.296;11.348;2022-07-22T03:50:07;13.53;;;12.43;;
1603;SDS011;795;49.296;11.348;2022-07-22T03:52:35;14.20;;;12.80;;
1603;SDS011;795;49.296;11.348;2022-07-22T03:55:03;14.03;;;12.70;;
1603;SDS011;795;49.296;11.348;2022-07-22T03:57:32;13.30;;;12.20;;
1603;SDS011;795;49.296;11.348;2022-07-22T03:59:59;13.90;;;12.60;;
1603;SDS011;795;49.296;11.348;2022-07-22T04:02:26;13.27;;;11.87;;
1603;SDS011;795;49.296;11.348;2022-07-22T04:04:53;13.37;;;12.27;;
1603;SDS011;795;49.296;11.348;2022-07-22T04:07:20;13.47;;;12.37;;
1603;SDS011;795;49.296;11.348;2022-07-22T04:09:47;14.33;;;12.30;;
1603;SDS011;795;49.296;11.348;2022-07-22T04:12:14;13.27;;;12.17;;
1603;SDS011;795;49.296;11.348;2022-07-22T04:14:41;14.13;;;13.03;;
1603;SDS011;795;49.296;11.348;2022-07-22T04:17:08;15.83;;;12.20;;
1603;SDS011;795;49.296;11.348;2022-07-22T04:19:41;13.40;;;12.20;;
1603;SDS011;795;49.296;11.348;2022-07-22T04:22:08;14.13;;;12.80;;
1603;SDS011;795;49.296;11.348;2022-07-22T04:24:35;13.20;;;11.97;;
1603;SDS011;795;49.296;11.348;2022-07-22T04:27:02;12.57;;;11.67;;
1603;SDS011;795;49.296;11.348;2022-07-22T04:29:29;13.47;;;12.27;;
1603;SDS011;795;49.296;11.348;2022-07-22T04:31:56;14.30;;;12.17;;
1603;SDS011;795;49.296;11.348;2022-07-22T04:34:28;14.23;;;12.93;;
1603;SDS011;795;49.296;11.348;2022-07-22T04:36:55;13.70;;;12.50;;
1603;SDS011;795;49.296;11.348;2022-07-22T04:39:23;14.40;;;13.00;;
1603;SDS011;795;49.296;11.348;2022-07-22T04:41:50;13.63;;;12.43;;
1603;SDS011;795;49.296;11.348;2022-07-22T04:44:17;13.17;;;12.07;;
1603;SDS011;795;49.296;11.348;2022-07-22T04:46:44;13.73;;;12.43;;
1603;SDS011;795;49.296;11.348;2022-07-22T04:49:12;14.27;;;12.97;;
1603;SDS011;795;49.296;11.348;2022-07-22T04:51:40;14.23;;;12.87;;
1603;SDS011;795;49.296;11.348;2022-07-22T04:54:07;14.70;;;13.20;;
1603;SDS011;795;49.296;11.348;2022-07-22T04:56:34;13.67;;;12.40;;
1603;SDS011;795;49.296;11.348;2022-07-22T04:59:03;14.00;;;12.60;;
1603;SDS011;795;49.296;11.348;2022-07-22T05:01:30;14.80;;;13.50;;
1603;SDS011;795;49.296;11.348;2022-07-22T05:03:57;14.47;;;12.80;;
1603;SDS011;795;49.296;11.348;2022-07-22T05:06:24;13.30;;;12.20;;
1603;SDS011;795;49.296;11.348;2022-07-22T05:08:51;14.60;;;13.40;;
1603;SDS011;795;49.296;11.348;2022-07-22T05:11:18;15.10;;;13.60;;
1603;SDS011;795;49.296;11.348;2022-07-22T05:13:45;13.93;;;12.73;;
1603;SDS011;795;49.296;11.348;2022-07-22T05:16:12;15.13;;;13.83;;
1603;SDS011;795;49.296;11.348;2022-07-22T05:18:40;18.10;;;13.57;;
1603;SDS011;795;49.296;11.348;2022-07-22T05:21:07;14.40;;;13.10;;
1603;SDS011;795;49.296;11.348;2022-07-22T05:23:34;13.73;;;12.53;;
1603;SDS011;795;49.296;11.348;2022-07-22T05:26:01;14.47;;;13.27;;
1603;SDS011;795;49.296;11.348;2022-07-22T05:28:30;14.63;;;12.93;;
1603;SDS011;795;49.296;11.348;2022-07-22T05:30:58;13.63;;;12.40;;
1603;SDS011;795;49.296;11.348;2022-07-22T05:33:25;14.70;;;13.40;;
1603;SDS011;795;49.296;11.348;2022-07-22T05:35:52;13.97;;;12.73;;
1603;SDS011;795;49.296;11.348;2022-07-22T05:38:20;13.33;;;12.13;;
1603;SDS011;795;49.296;11.348;2022-07-22T05:40:47;14.10;;;12.90;;
1603;SDS011;795;49.296;11.348;2022-07-22T05:43:14;13.80;;;12.50;;
1603;SDS011;795;49.296;11.348;2022-07-22T05:45:41;13.53;;;12.10;;
1603;SDS011;795;49.296;11.348;2022-07-22T05:48:08;11.83;;;10.63;;
1603;SDS011;795;49.296;11.348;2022-07-22T05:50:35;12.33;;;11.30;;
1603;SDS011;795;49.296;11.348;2022-07-22T05:53:02;13.30;;;12.23;;
1603;SDS011;795;49.296;11.348;2022-07-22T05:55:31;12.07;;;10.87;;
1603;SDS011;795;49.296;11.348;2022-07-22T05:57:58;13.83;;;11.17;;
1603;SDS011;795;49.296;11.348;2022-07-22T06:00:25;14.10;;;11.80;;
1603;SDS011;795;49.296;11.348;2022-07-22T06:02:52;12.47;;;11.37;;
1603;SDS011;795;49.296;11.348;2022-07-22T06:05:19;11.23;;;10.33;;
1603;SDS011;795;49.296;11.348;2022-07-22T06:08:02;11.73;;;10.67;;
1603;SDS011;795;49.296;11.348;2022-07-22T06:10:31;11.87;;;10.97;;
1603;SDS011;795;49.296;11.348;2022-07-22T06:12:58;10.87;;;9.87;;
1603;SDS011;795;49.296;11.348;2022-07-22T06:15:25;11.87;;;10.50;;
1603;SDS011;795;49.296;11.348;2022-07-22T06:17:52;10.67;;;9.70;;
1603;SDS011;795;49.296;11.348;2022-07-22T06:20:20;12.17;;;11.07;;
1603;SDS011;795;49.296;11.348;2022-07-22T06:22:47;11.10;;;10.13;;
1603;SDS011;795;49.296;11.348;2022-07-22T06:25:14;11.10;;;10.13;;
1603;SDS011;795;49.296;11.348;2022-07-22T06:28:01;10.50;;;9.70;;
1603;SDS011;795;49.296;11.348;2022-07-22T06:30:28;12.60;;;10.80;;
1603;SDS011;795;49.296;11.348;2022-07-22T06:32:55;11.57;;;10.37;;
1603;SDS011;795;49.296;11.348;2022-07-22T06:35:23;11.03;;;10.07;;
1603;SDS011;795;49.296;11.348;2022-07-22T06:37:53;10.37;;;9.33;;
1603;SDS011;795;49.296;11.348;2022-07-22T06:40:31;10.73;;;9.83;;
1603;SDS011;795;49.296;11.348;2022-07-22T06:43:00;10.30;;;9.37;;
1603;SDS011;795;49.296;11.348;2022-07-22T06:45:29;10.40;;;9.50;;
1603;SDS011;795;49.296;11.348;2022-07-22T06:47:56;11.53;;;10.00;;
1603;SDS011;795;49.296;11.348;2022-07-22T06:50:24;10.27;;;9.27;;
1603;SDS011;795;49.296;11.348;2022-07-22T06:52:52;9.90;;;9.17;;
1603;SDS011;795;49.296;11.348;2022-07-22T06:55:20;9.80;;;8.87;;
1603;SDS011;795;49.296;11.348;2022-07-22T06:57:47;10.93;;;9.93;;
1603;SDS011;795;49.296;11.348;2022-07-22T07:00:14;10.47;;;9.40;;
1603;SDS011;795;49.296;11.348;2022-07-22T07:02:42;10.37;;;9.37;;
1603;SDS011;795;49.296;11.348;2022-07-22T07:05:09;10.30;;;9.37;;
1603;SDS011;795;49.296;11.348;2022-07-22T07:07:45;9.67;;;8.97;;
1603;SDS011;795;49.296;11.348;2022-07-22T07:10:13;9.93;;;9.03;;
1603;SDS011;795;49.296;11.348;2022-07-22T07:12:42;9.50;;;8.10;;
1603;SDS011;795;49.296;11.348;2022-07-22T07:15:09;10.93;;;8.50;;
1603;SDS011;795;49.296;11.348;2022-07-22T07:17:49;10.40;;;9.50;;
1603;SDS011;795;49.296;11.348;2022-07-22T07:20:18;8.57;;;7.83;;
1603;SDS011;795;49.296;11.348;2022-07-22T07:22:46;10.53;;;7.67;;
1603;SDS011;795;49.296;11.348;2022-07-22T07:25:13;10.83;;;8.53;;
1603;SDS011;795;49.296;11.348;2022-07-22T07:27:48;9.10;;;8.30;;
1603;SDS011;795;49.296;11.348;2022-07-22T07:30:19;10.33;;;9.33;;
1603;SDS011;795;49.296;11.348;2022-07-22T07:32:48;9.60;;;8.90;;
1603;SDS011;795;49.296;11.348;2022-07-22T07:35:15;10.37;;;9.33;;
1603;SDS011;795;49.296;11.348;2022-07-22T07:37:42;10.40;;;9.00;;
1603;SDS011;795;49.296;11.348;2022-07-22T07:40:10;10.03;;;9.13;;
1603;SDS011;795;49.296;11.348;2022-07-22T07:42:37;9.23;;;8.37;;
1603;SDS011;795;49.296;11.348;2022-07-22T07:45:12;9.50;;;8.60;;
1603;SDS011;795;49.296;11.348;2022-07-22T07:47:39;9.97;;;9.17;;
1603;SDS011;795;49.296;11.348;2022-07-22T07:50:07;9.60;;;8.90;;
1603;SDS011;795;49.296;11.348;2022-07-22T07:52:39;8.70;;;7.93;;
1603;SDS011;795;49.296;11.348;2022-07-22T07:55:17;10.03;;;8.10;;
1603;SDS011;795;49.296;11.348;2022-07-22T07:57:47;9.93;;;9.03;;
1603;SDS011;795;49.296;11.348;2022-07-22T08:00:18;8.17;;;7.47;;
1603;SDS011;795;49.296;11.348;2022-07-22T08:03:59;9.00;;;8.30;;
1603;SDS011;795;49.296;11.348;2022-07-22T08:06:46;8.10;;;7.37;;
1603;SDS011;795;49.296;11.348;2022-07-22T08:09:13;9.20;;;8.40;;
1603;SDS011;795;49.296;11.348;2022-07-22T08:11:40;9.10;;;8.40;;
1603;SDS011;795;49.296;11.348;2022-07-22T08:14:07;8.37;;;7.70;;
1603;SDS011;795;49.296;11.348;2022-07-22T08:16:34;9.50;;;8.80;;
1603;SDS011;795;49.296;11.348;2022-07-22T08:19:03;8.97;;;8.17;;
1603;SDS011;795;49.296;11.348;2022-07-22T08:21:30;9.23;;;8.53;;
1603;SDS011;795;49.296;11.348;2022-07-22T08:24:00;8.63;;;8.00;;
1603;SDS011;795;49.296;11.348;2022-07-22T08:26:27;9.10;;;7.53;;
1603;SDS011;795;49.296;11.348;2022-07-22T08:28:57;9.30;;;8.50;;
1603;SDS011;795;49.296;11.348;2022-07-22T08:31:26;8.23;;;7.63;;
1603;SDS011;795;49.296;11.348;2022-07-22T08:33:55;9.53;;;8.63;;
1603;SDS011;795;49.296;11.348;2022-07-22T08:36:25;9.57;;;8.07;;
1603;SDS011;795;49.296;11.348;2022-07-22T08:38:52;9.67;;;8.67;;
1603;SDS011;795;49.296;11.348;2022-07-22T08:41:20;8.30;;;7.60;;
1603;SDS011;795;49.296;11.348;2022-07-22T08:43:50;8.57;;;7.83;;
1603;SDS011;795;49.296;11.348;2022-07-22T08:46:19;8.60;;;7.10;;
1603;SDS011;795;49.296;11.348;2022-07-22T08:48:46;7.53;;;6.93;;
1603;SDS011;795;49.296;11.348;2022-07-22T08:51:15;8.30;;;7.70;;
1603;SDS011;795;49.296;11.348;2022-07-22T08:53:42;8.57;;;7.77;;
1603;SDS011;795;49.296;11.348;2022-07-22T08:56:11;8.10;;;7.50;;
1603;SDS011;795;49.296;11.348;2022-07-22T08:58:40;9.30;;;8.03;;
1603;SDS011;795;49.296;11.348;2022-07-22T09:01:11;8.20;;;7.60;;
1603;SDS011;795;49.296;11.348;2022-07-22T09:06:23;8.70;;;7.90;;
1603;SDS011;795;49.296;11.348;2022-07-22T09:08:57;7.63;;;7.07;;
1603;SDS011;795;49.296;11.348;2022-07-22T09:11:32;8.10;;;7.40;;
1603;SDS011;795;49.296;11.348;2022-07-22T09:14:00;9.00;;;7.90;;
1603;SDS011;795;49.296;11.348;2022-07-22T09:16:44;7.10;;;6.50;;
1603;SDS011;795;49.296;11.348;2022-07-22T09:19:14;8.57;;;7.90;;
1603;SDS011;795;49.296;11.348;2022-07-22T09:21:44;6.90;;;5.80;;
1603;SDS011;795;49.296;11.348;2022-07-22T09:24:27;7.63;;;6.93;;
1603;SDS011;795;49.296;11.348;2022-07-22T09:26:58;6.63;;;6.00;;
1603;SDS011;795;49.296;11.348;2022-07-22T09:29:26;8.73;;;7.00;;
1603;SDS011;795;49.296;11.348;2022-07-22T09:32:02;6.80;;;6.20;;
1603;SDS011;795;49.296;11.348;2022-07-22T09:34:33;7.03;;;6.43;;
1603;SDS011;795;49.296;11.348;2022-07-22T09:37:00;7.43;;;6.60;;
1603;SDS011;795;49.296;11.348;2022-07-22T09:39:30;6.70;;;6.03;;
1603;SDS011;795;49.296;11.348;2022-07-22T09:42:00;7.73;;;6.87;;
1603;SDS011;795;49.296;11.348;2022-07-22T09:44:32;7.10;;;6.50;;
1603;SDS011;795;49.296;11.348;2022-07-22T09:47:00;7.53;;;6.73;;
1603;SDS011;795;49.296;11.348;2022-07-22T09:49:34;9.10;;;6.60;;
1603;SDS011;795;49.296;11.348;2022-07-22T09:52:06;7.60;;;7.00;;
1603;SDS011;795;49.296;11.348;2022-07-22T09:54:33;7.23;;;6.63;;
1603;SDS011;795;49.296;11.348;2022-07-22T09:57:01;7.33;;;6.67;;
1603;SDS011;795;49.296;11.348;2022-07-22T09:59:29;6.80;;;6.20;;
1603;SDS011;795;49.296;11.348;2022-07-22T10:01:57;7.50;;;6.80;;
1603;SDS011;795;49.296;11.348;2022-07-22T10:04:30;8.00;;;7.40;;
1603;SDS011;795;49.296;11.348;2022-07-22T10:07:02;7.57;;;6.87;;
1603;SDS011;795;49.296;11.348;2022-07-22T10:09:30;7.53;;;6.93;;
1603;SDS011;795;49.296;11.348;2022-07-22T10:11:58;7.07;;;6.47;;
1603;SDS011;795;49.296;11.348;2022-07-22T10:14:26;6.93;;;6.40;;
1603;SDS011;795;49.296;11.348;2022-07-22T10:16:56;7.77;;;7.07;;
1603;SDS011;795;49.296;11.348;2022-07-22T10:19:32;7.90;;;7.20;;
1603;SDS011;795;49.296;11.348;2022-07-22T10:22:00;7.47;;;6.87;;
1603;SDS011;795;49.296;11.348;2022-07-22T10:24:27;7.00;;;6.30;;
1603;SDS011;795;49.296;11.348;2022-07-22T10:26:54;7.30;;;6.70;;
1603;SDS011;795;49.296;11.348;2022-07-22T10:29:31;6.80;;;6.10;;
1603;SDS011;795;49.296;11.348;2022-07-22T10:34:44;8.10;;;7.50;;
1603;SDS011;795;49.296;11.348;2022-07-22T10:43:09;5.80;;;5.20;;
1603;SDS011;795;49.296;11.348;2022-07-22T10:48:20;6.07;;;4.67;;
1603;SDS011;795;49.296;11.348;2022-07-22T10:50:55;6.80;;;5.30;;
1603;SDS011;795;49.296;11.348;2022-07-22T10:56:30;5.80;;;5.40;;
1603;SDS011;795;49.296;11.348;2022-07-22T10:59:13;5.90;;;5.40;;
1603;SDS011;795;49.296;11.348;2022-07-22T11:01:44;6.07;;;5.50;;
1603;SDS011;795;49.296;11.348;2022-07-22T11:04:22;6.47;;;5.97;;
1603;SDS011;795;49.296;11.348;2022-07-22T11:06:56;5.43;;;4.93;;
1603;SDS011;795;49.296;11.348;2022-07-22T11:09:30;5.50;;;5.10;;
1603;SDS011;795;49.296;11.348;2022-07-22T11:12:01;5.20;;;4.80;;
1603;SDS011;795;49.296;11.348;2022-07-22T11:14:32;6.13;;;5.63;;
1603;SDS011;795;49.296;11.348;2022-07-22T11:17:07;6.10;;;5.70;;
1603;SDS011;795;49.296;11.348;2022-07-22T11:19:42;6.17;;;5.53;;
1603;SDS011;795;49.296;11.348;2022-07-22T11:22:11;6.27;;;5.63;;
1603;SDS011;795;49.296;11.348;2022-07-22T11:24:41;6.67;;;6.03;;
1603;SDS011;795;49.296;11.348;2022-07-22T11:27:14;6.47;;;5.97;;
1603;SDS011;795;49.296;11.348;2022-07-22T11:29:49;5.87;;;5.40;;
1603;SDS011;795;49.296;11.348;2022-07-22T11:32:21;6.20;;;5.70;;
1603;SDS011;795;49.296;11.348;2022-07-22T11:34:54;7.13;;;5.80;;
1603;SDS011;795;49.296;11.348;2022-07-22T11:37:23;5.90;;;5.30;;
1603;SDS011;795;49.296;11.348;2022-07-22T11:39:59;6.27;;;5.77;;
1603;SDS011;795;49.296;11.348;2022-07-22T11:42:33;6.47;;;6.07;;
1603;SDS011;795;49.296;11.348;2022-07-22T11:45:01;6.47;;;5.83;;
1603;SDS011;795;49.296;11.348;2022-07-22T11:47:30;6.63;;;6.03;;
1603;SDS011;795;49.296;11.348;2022-07-22T11:49:57;6.73;;;6.00;;
1603;SDS011;795;49.296;11.348;2022-07-22T11:52:24;6.40;;;5.80;;
1603;SDS011;795;49.296;11.348;2022-07-22T11:54:52;6.70;;;6.10;;
1603;SDS011;795;49.296;11.348;2022-07-22T11:57:19;6.03;;;5.53;;
1603;SDS011;795;49.296;11.348;2022-07-22T11:59:46;5.23;;;4.83;;
1603;SDS011;795;49.296;11.348;2022-07-22T12:02:12;6.30;;;5.77;;
1603;SDS011;795;49.296;11.348;2022-07-22T12:04:41;7.17;;;5.37;;
1603;SDS011;795;49.296;11.348;2022-07-22T12:07:12;7.13;;;5.30;;
1603;SDS011;795;49.296;11.348;2022-07-22T12:09:41;10.53;;;5.90;;
1603;SDS011;795;49.296;11.348;2022-07-22T12:12:09;6.50;;;6.00;;
1603;SDS011;795;49.296;11.348;2022-07-22T12:14:36;5.83;;;5.33;;
1603;SDS011;795;49.296;11.348;2022-07-22T12:17:14;5.90;;;5.40;;
1603;SDS011;795;49.296;11.348;2022-07-22T12:19:42;6.57;;;5.77;;
1603;SDS011;795;49.296;11.348;2022-07-22T12:22:18;6.93;;;6.27;;
1603;SDS011;795;49.296;11.348;2022-07-22T12:25:01;5.70;;;5.23;;
1603;SDS011;795;49.296;11.348;2022-07-22T12:27:29;6.90;;;5.07;;
1603;SDS011;795;49.296;11.348;2022-07-22T12:29:56;5.77;;;5.37;;
1603;SDS011;795;49.296;11.348;2022-07-22T12:37:27;5.70;;;5.20;;
1603;SDS011;795;49.296;11.348;2022-07-22T12:40:04;5.60;;;5.20;;
1603;SDS011;795;49.296;11.348;2022-07-22T12:42:47;6.53;;;5.93;;
1603;SDS011;795;49.296;11.348;2022-07-22T12:45:31;6.87;;;5.80;;
1603;SDS011;795;49.296;11.348;2022-07-22T12:53:10;6.47;;;5.80;;
1603;SDS011;795;49.296;11.348;2022-07-22T12:55:50;5.90;;;5.40;;
1603;SDS011;795;49.296;11.348;2022-07-22T12:58:28;5.87;;;5.30;;
1603;SDS011;795;49.296;11.348;2022-07-22T13:00:59;6.03;;;5.50;;
1603;SDS011;795;49.296;11.348;2022-07-22T13:03:28;6.57;;;5.67;;
1603;SDS011;795;49.296;11.348;2022-07-22T13:05:57;5.73;;;5.20;;
1603;SDS011;795;49.296;11.348;2022-07-22T13:08:33;5.90;;;5.13;;
1603;SDS011;795;49.296;11.348;2022-07-22T13:11:15;6.47;;;5.90;;
1603;SDS011;795;49.296;11.348;2022-07-22T13:13:42;5.53;;;5.13;;
1603;SDS011;795;49.296;11.348;2022-07-22T13:16:09;5.80;;;5.30;;
1603;SDS011;795;49.296;11.348;2022-07-22T13:18:38;5.57;;;5.07;;
1603;SDS011;795;49.296;11.348;2022-07-22T13:21:06;7.40;;;6.70;;
1603;SDS011;795;49.296;11.348;2022-07-22T13:23:33;6.27;;;5.77;;
1603;SDS011;795;49.296;11.348;2022-07-22T13:26:00;5.50;;;5.10;;
1603;SDS011;795;49.296;11.348;2022-07-22T13:28:27;6.70;;;6.00;;
1603;SDS011;795;49.296;11.348;2022-07-22T13:30:54;5.60;;;5.10;;
1603;SDS011;795;49.296;11.348;2022-07-22T13:33:21;6.00;;;5.60;;
1603;SDS011;795;49.296;11.348;2022-07-22T13:35:48;5.43;;;5.03;;
1603;SDS011;795;49.296;11.348;2022-07-22T13:38:15;5.90;;;5.40;;
1603;SDS011;795;49.296;11.348;2022-07-22T13:40:43;5.60;;;5.10;;
1603;SDS011;795;49.296;11.348;2022-07-22T13:43:18;5.80;;;5.40;;
1603;SDS011;795;49.296;11.348;2022-07-22T13:45:49;5.37;;;4.87;;
1603;SDS011;795;49.296;11.348;2022-07-22T13:48:17;5.73;;;5.03;;
1603;SDS011;795;49.296;11.348;2022-07-22T13:50:46;5.97;;;5.20;;
1603;SDS011;795;49.296;11.348;2022-07-22T13:53:14;5.43;;;5.00;;
1603;SDS011;795;49.296;11.348;2022-07-22T13:55:41;5.23;;;4.83;;
1603;SDS011;795;49.296;11.348;2022-07-22T13:58:08;6.30;;;5.40;;
1603;SDS011;795;49.296;11.348;2022-07-22T14:00:35;6.13;;;5.33;;
1603;SDS011;795;49.296;11.348;2022-07-22T14:03:04;5.13;;;4.70;;
1603;SDS011;795;49.296;11.348;2022-07-22T14:05:32;6.00;;;5.40;;
1603;SDS011;795;49.296;11.348;2022-07-22T14:08:00;5.27;;;4.87;;
1603;SDS011;795;49.296;11.348;2022-07-22T14:10:27;6.07;;;5.57;;
1603;SDS011;795;49.296;11.348;2022-07-22T14:12:54;5.63;;;4.93;;
1603;SDS011;795;49.296;11.348;2022-07-22T14:15:21;5.83;;;5.40;;
1603;SDS011;795;49.296;11.348;2022-07-22T14:17:48;5.70;;;5.23;;
1603;SDS011;795;49.296;11.348;2022-07-22T14:20:15;6.00;;;5.40;;
1603;SDS011;795;49.296;11.348;2022-07-22T14:22:42;5.60;;;5.20;;
1603;SDS011;795;49.296;11.348;2022-07-22T14:25:09;6.30;;;5.80;;
1603;SDS011;795;49.296;11.348;2022-07-22T14:27:36;5.80;;;5.30;;
1603;SDS011;795;49.296;11.348;2022-07-22T14:30:03;5.80;;;5.40;;
1603;SDS011;795;49.296;11.348;2022-07-22T14:32:31;5.40;;;4.97;;
1603;SDS011;795;49.296;11.348;2022-07-22T14:34:59;4.83;;;4.53;;
1603;SDS011;795;49.296;11.348;2022-07-22T14:37:28;5.27;;;4.87;;
1603;SDS011;795;49.296;11.348;2022-07-22T14:39:55;5.90;;;5.40;;
1603;SDS011;795;49.296;11.348;2022-07-22T14:42:22;6.03;;;5.37;;
1603;SDS011;795;49.296;11.348;2022-07-22T14:44:50;5.17;;;4.77;;
1603;SDS011;795;49.296;11.348;2022-07-22T14:47:17;5.40;;;5.00;;
1603;SDS011;795;49.296;11.348;2022-07-22T14:49:44;5.97;;;5.47;;
1603;SDS011;795;49.296;11.348;2022-07-22T14:52:11;5.70;;;5.20;;
1603;SDS011;795;49.296;11.348;2022-07-22T14:54:38;6.47;;;5.10;;
1603;SDS011;795;49.296;11.348;2022-07-22T14:57:05;6.00;;;5.27;;
1603;SDS011;795;49.296;11.348;2022-07-22T14:59:33;5.30;;;4.73;;
1603;SDS011;795;49.296;11.348;2022-07-22T15:02:00;6.07;;;5.60;;
1603;SDS011;795;49.296;11.348;2022-07-22T15:04:27;6.47;;;5.23;;
1603;SDS011;795;49.296;11.348;2022-07-22T15:06:54;5.53;;;5.03;;
1603;SDS011;795;49.296;11.348;2022-07-22T15:09:21;5.97;;;5.50;;
1603;SDS011;795;49.296;11.348;2022-07-22T15:11:48;5.30;;;4.90;;
1603;SDS011;795;49.296;11.348;2022-07-22T15:14:18;5.87;;;5.40;;
1603;SDS011;795;49.296;11.348;2022-07-22T15:16:46;5.90;;;5.40;;
1603;SDS011;795;49.296;11.348;2022-07-22T15:19:13;6.33;;;5.73;;
1603;SDS011;795;49.296;11.348;2022-07-22T15:21:40;5.33;;;4.93;;
1603;SDS011;795;49.296;11.348;2022-07-22T15:24:07;5.83;;;5.33;;
1603;SDS011;795;49.296;11.348;2022-07-22T15:26:34;6.00;;;5.47;;
1603;SDS011;795;49.296;11.348;2022-07-22T15:29:01;5.57;;;5.17;;
1603;SDS011;795;49.296;11.348;2022-07-22T15:31:30;5.70;;;5.20;;
1603;SDS011;795;49.296;11.348;2022-07-22T15:33:58;5.53;;;5.00;;
1603;SDS011;795;49.296;11.348;2022-07-22T15:36:26;8.17;;;5.87;;
1603;SDS011;795;49.296;11.348;2022-07-22T15:38:53;10.20;;;9.50;;
1603;SDS011;795;49.296;11.348;2022-07-22T15:41:25;5.43;;;4.83;;